createdAt,value
2022-10-23T00:01:35.267Z,12.08
2022-10-23T00:04:06.735Z,12.04
2022-10-23T00:06:35.942Z,12.02
2022-10-23T00:09:07.388Z,12.05
2022-10-23T00:11:36.411Z,12.03
2022-10-23T00:14:07.169Z,12.01
2022-10-23T00:16:35.031Z,12.06
2022-10-23T00:19:03.790Z,12.02
2022-10-23T00:21:31.580Z,12.05
2022-10-23T00:23:59.464Z,12.02
2022-10-23T00:26:27.849Z,11.97
2022-10-23T00:28:56.516Z,12.00
2022-10-23T00:31:25.174Z,11.97
2022-10-23T00:33:53.630Z,11.95
2022-10-23T00:36:22.355Z,11.96
2022-10-23T00:38:51.104Z,11.99
2022-10-23T00:41:24.833Z,11.99
2022-10-23T00:44:04.172Z,11.99
2022-10-23T00:46:32.929Z,11.96
2022-10-23T00:49:01.351Z,12.00
2022-10-23T00:51:34.705Z,12.00
2022-10-23T00:54:25.017Z,12.03
2022-10-23T00:56:54.665Z,12.06
2022-10-23T00:59:22.939Z,12.10
2022-10-23T01:01:51.414Z,12.10
2022-10-23T01:04:19.869Z,12.09
2022-10-23T01:07:20.182Z,12.13
2022-10-23T01:10:15.193Z,12.04
2022-10-23T01:13:02.850Z,11.97
2022-10-23T01:16:05.882Z,11.98
2022-10-23T01:18:46.980Z,11.94
2022-10-23T01:21:22.366Z,11.97
2022-10-23T01:24:28.611Z,11.90
2022-10-23T01:27:15.294Z,11.89
2022-10-23T01:30:01.573Z,11.88
2022-10-23T01:33:04.301Z,11.91
2022-10-23T01:35:49.046Z,11.88
2022-10-23T01:38:29.033Z,11.84
2022-10-23T01:41:06.679Z,11.81
2022-10-23T01:43:45.330Z,11.80
2022-10-23T01:46:17.037Z,11.80
2022-10-23T01:48:51.374Z,11.76
2022-10-23T01:51:22.062Z,11.77
2022-10-23T01:53:52.136Z,11.74
2022-10-23T01:56:25.954Z,11.70
2022-10-23T01:58:56.641Z,11.69
2022-10-23T02:01:29.528Z,11.66
2022-10-23T02:06:32.819Z,11.63
2022-10-23T02:09:00.871Z,11.62
2022-10-23T02:11:31.429Z,11.62
2022-10-23T02:14:11.926Z,11.59
2022-10-23T02:16:57.576Z,11.56
2022-10-23T02:19:33.280Z,11.56
2022-10-23T02:22:35.071Z,11.54
2022-10-23T02:25:13.221Z,11.53
2022-10-23T02:27:48.263Z,11.51
2022-10-23T02:30:19.244Z,11.53
2022-10-23T02:32:54.831Z,11.50
2022-10-23T02:35:24.822Z,11.51
2022-10-23T02:38:00.974Z,11.49
2022-10-23T02:40:43.187Z,11.44
2022-10-23T02:43:10.799Z,11.46
2022-10-23T02:45:59.128Z,11.46
2022-10-23T02:48:39.257Z,11.45
2022-10-23T02:51:50.077Z,11.46
2022-10-23T02:54:29.907Z,11.46
2022-10-23T02:57:06.162Z,11.45
2022-10-23T02:59:43.842Z,11.47
2022-10-23T03:02:41.306Z,11.45
2022-10-23T03:05:14.360Z,11.43
2022-10-23T03:07:44.152Z,11.42
2022-10-23T03:10:14.174Z,11.43
2022-10-23T03:12:42.661Z,11.39
2022-10-23T03:15:12.536Z,11.41
2022-10-23T03:17:41.110Z,11.41
2022-10-23T03:20:10.451Z,11.41
2022-10-23T03:22:38.736Z,11.38
2022-10-23T03:25:08.277Z,11.37
2022-10-23T03:27:36.893Z,11.34
2022-10-23T03:30:07.319Z,11.36
2022-10-23T03:32:35.692Z,11.34
2022-10-23T03:35:04.255Z,11.35
2022-10-23T03:37:32.820Z,11.37
2022-10-23T03:40:07.689Z,11.37
2022-10-23T03:42:37.204Z,11.37
2022-10-23T03:45:07.805Z,11.39
2022-10-23T03:47:43.059Z,11.40
2022-10-23T03:50:13.533Z,11.43
2022-10-23T03:52:41.466Z,11.44
2022-10-23T03:55:10.016Z,11.41
2022-10-23T03:57:38.291Z,11.40
2022-10-23T04:00:07.203Z,11.40
2022-10-23T04:02:45.317Z,11.43
2022-10-23T04:05:13.813Z,11.41
2022-10-23T04:07:42.108Z,11.38
2022-10-23T04:10:11.341Z,11.35
2022-10-23T04:12:40.897Z,11.42
2022-10-23T04:15:09.201Z,11.42
2022-10-23T04:17:37.184Z,11.41
2022-10-23T04:20:05.819Z,11.41
2022-10-23T04:22:33.605Z,11.37
2022-10-23T04:25:01.533Z,11.35
2022-10-23T04:27:30.922Z,11.34
2022-10-23T04:29:59.224Z,11.35
2022-10-23T04:32:27.577Z,11.30
2022-10-23T04:34:55.282Z,11.29
2022-10-23T04:37:23.957Z,11.33
2022-10-23T04:39:51.781Z,11.34
2022-10-23T04:42:19.777Z,11.31
2022-10-23T04:44:48.382Z,11.32
2022-10-23T04:47:16.201Z,11.30
2022-10-23T04:49:56.259Z,11.30
2022-10-23T04:52:57.765Z,11.32
2022-10-23T04:55:25.525Z,11.34
2022-10-23T04:58:27.615Z,11.35
2022-10-23T05:00:58.430Z,11.38
2022-10-23T05:03:27.629Z,11.39
2022-10-23T05:05:56.314Z,11.40
2022-10-23T05:08:53.242Z,11.41
2022-10-23T05:11:36.607Z,11.43
2022-10-23T05:14:07.867Z,11.44
2022-10-23T05:17:00.033Z,11.40
2022-10-23T05:19:34.785Z,11.42
2022-10-23T05:22:02.590Z,11.42
2022-10-23T05:24:49.677Z,11.41
2022-10-23T05:27:21.151Z,11.42
2022-10-23T05:29:49.004Z,11.42
2022-10-23T05:34:54.524Z,11.42
2022-10-23T05:37:25.819Z,11.45
2022-10-23T05:40:00.742Z,11.46
2022-10-23T05:42:28.739Z,11.46
2022-10-23T05:44:58.075Z,11.46
2022-10-23T05:47:46.884Z,11.48
2022-10-23T05:50:36.930Z,11.48
2022-10-23T05:53:42.452Z,11.51
2022-10-23T05:56:24.763Z,11.50
2022-10-23T05:59:03.303Z,11.51
2022-10-23T06:01:51.443Z,11.50
2022-10-23T06:04:42.627Z,11.50
2022-10-23T06:07:13.293Z,11.52
2022-10-23T06:09:44.077Z,11.54
2022-10-23T06:12:11.881Z,11.56
2022-10-23T06:15:08.571Z,11.60
2022-10-23T06:18:01.214Z,11.64
2022-10-23T06:20:36.269Z,11.70
2022-10-23T06:23:09.440Z,11.72
2022-10-23T06:26:08.885Z,11.74
2022-10-23T06:28:49.674Z,11.78
2022-10-23T06:31:26.566Z,11.83
2022-10-23T06:33:56.092Z,11.87
2022-10-23T06:36:24.208Z,11.90
2022-10-23T06:38:53.814Z,11.92
2022-10-23T06:41:23.182Z,11.93
2022-10-23T06:43:55.138Z,11.93
2022-10-23T06:46:30.193Z,11.93
2022-10-23T06:49:27.715Z,11.98
2022-10-23T06:51:56.176Z,12.00
2022-10-23T06:54:24.154Z,11.99
2022-10-23T06:56:55.574Z,12.01
2022-10-23T06:59:30.705Z,12.05
2022-10-23T07:02:24.235Z,12.08
2022-10-23T07:04:52.078Z,12.08
2022-10-23T07:07:20.362Z,12.08
2022-10-23T07:09:49.592Z,12.14
2022-10-23T07:12:40.909Z,12.16
2022-10-23T07:15:27.872Z,12.19
2022-10-23T07:17:56.354Z,12.24
2022-10-23T07:20:24.605Z,12.30
2022-10-23T07:22:54.525Z,12.35
2022-10-23T07:25:29.155Z,12.36
2022-10-23T07:27:57.581Z,12.36
2022-10-23T07:30:26.534Z,12.37
2022-10-23T07:32:55.753Z,12.38
2022-10-23T07:35:52.007Z,12.46
2022-10-23T07:38:25.689Z,12.49
2022-10-23T07:40:58.204Z,12.57
2022-10-23T07:43:26.595Z,12.63
2022-10-23T07:45:55.221Z,12.68
2022-10-23T07:48:31.190Z,12.74
2022-10-23T07:51:08.380Z,12.78
2022-10-23T07:53:39.312Z,12.83
2022-10-23T07:56:26.269Z,12.83
2022-10-23T07:59:14.570Z,12.82
2022-10-23T08:01:45.873Z,12.81
2022-10-23T08:04:14.383Z,12.81
2022-10-23T08:06:56.411Z,12.82
2022-10-23T08:09:25.209Z,12.79
2022-10-23T08:11:52.988Z,12.79
2022-10-23T08:14:21.023Z,12.79
2022-10-23T08:16:49.313Z,12.77
2022-10-23T08:19:19.661Z,12.80
2022-10-23T08:21:48.485Z,12.76
2022-10-23T08:24:17.969Z,12.76
2022-10-23T08:26:46.380Z,12.71
2022-10-23T08:29:14.632Z,12.71
2022-10-23T08:31:42.799Z,12.74
2022-10-23T08:34:25.853Z,12.77
2022-10-23T08:36:54.286Z,12.79
2022-10-23T08:39:22.086Z,12.78
2022-10-23T08:42:03.095Z,12.76
2022-10-23T08:44:36.476Z,12.77
2022-10-23T08:47:42.786Z,12.76
2022-10-23T08:50:47.456Z,12.70
2022-10-23T08:53:41.189Z,12.73
2022-10-23T08:56:37.903Z,12.75
2022-10-23T08:59:28.240Z,12.79
2022-10-23T09:02:05.451Z,12.80
2022-10-23T09:04:34.503Z,12.82
2022-10-23T09:07:32.319Z,12.83
2022-10-23T09:10:06.187Z,12.86
2022-10-23T09:12:34.115Z,12.87
2022-10-23T09:15:17.353Z,12.90
2022-10-23T09:17:46.171Z,12.89
2022-10-23T09:20:22.394Z,12.91
2022-10-23T09:22:54.942Z,12.90
2022-10-23T09:25:26.993Z,12.83
2022-10-23T09:28:00.194Z,12.88
2022-10-23T09:30:39.176Z,12.91
2022-10-23T09:33:20.141Z,12.95
2022-10-23T09:35:59.994Z,12.91
2022-10-23T09:38:27.763Z,12.89
2022-10-23T09:40:56.238Z,12.93
2022-10-23T09:43:27.422Z,12.95
2022-10-23T09:46:03.070Z,13.01
2022-10-23T09:48:31.243Z,12.99
2022-10-23T09:51:02.190Z,13.04
2022-10-23T09:53:35.885Z,13.05
2022-10-23T09:56:24.820Z,13.07
2022-10-23T09:58:59.298Z,13.03
2022-10-23T10:01:33.181Z,13.05
2022-10-23T10:04:17.565Z,13.13
2022-10-23T10:06:46.189Z,13.15
2022-10-23T10:09:16.542Z,13.20
2022-10-23T10:11:49.993Z,13.27
2022-10-23T10:14:39.388Z,13.30
2022-10-23T10:17:19.921Z,13.27
2022-10-23T10:19:50.675Z,13.26
2022-10-23T10:22:42.530Z,13.27
2022-10-23T10:25:21.446Z,13.26
2022-10-23T10:28:05.302Z,13.25
2022-10-23T10:30:56.510Z,13.27
2022-10-23T10:33:47.720Z,13.28
2022-10-23T10:36:30.671Z,13.33
2022-10-23T10:39:03.948Z,13.37
2022-10-23T10:41:56.076Z,13.42
2022-10-23T10:44:53.402Z,13.40
2022-10-23T10:47:29.309Z,13.40
2022-10-23T10:50:23.061Z,13.39
2022-10-23T10:53:24.272Z,13.38
2022-10-23T10:55:55.576Z,13.42
2022-10-23T10:58:32.022Z,13.47
2022-10-23T11:01:03.437Z,13.49
2022-10-23T11:03:40.286Z,13.49
2022-10-23T11:06:16.242Z,13.51
2022-10-23T11:08:56.537Z,13.54
2022-10-23T11:11:45.942Z,13.53
2022-10-23T11:14:19.537Z,13.51
2022-10-23T11:16:53.207Z,13.49
2022-10-23T11:19:43.297Z,13.53
2022-10-23T11:22:24.300Z,13.60
2022-10-23T11:25:32.195Z,13.56
2022-10-23T11:28:23.690Z,13.59
2022-10-23T11:31:22.527Z,13.59
2022-10-23T11:34:24.335Z,13.60
2022-10-23T11:36:58.758Z,13.61
2022-10-23T11:39:29.682Z,13.65
2022-10-23T11:42:08.834Z,13.72
2022-10-23T11:44:36.538Z,13.77
2022-10-23T11:47:39.649Z,13.77
2022-10-23T11:50:07.935Z,13.75
2022-10-23T11:52:45.447Z,13.79
2022-10-23T11:55:24.319Z,13.83
2022-10-23T11:58:34.912Z,13.85
2022-10-23T12:01:18.327Z,13.92
2022-10-23T12:03:54.462Z,13.98
2022-10-23T12:06:28.485Z,13.98
2022-10-23T12:09:06.775Z,14.01
2022-10-23T12:12:02.757Z,14.07
2022-10-23T12:14:43.471Z,14.08
2022-10-23T12:17:41.710Z,14.15
2022-10-23T12:20:22.807Z,14.21
2022-10-23T12:23:20.932Z,14.30
2022-10-23T12:26:16.404Z,14.37
2022-10-23T12:29:12.093Z,14.40
2022-10-23T12:31:59.139Z,14.41
2022-10-23T12:35:08.359Z,14.42
2022-10-23T12:38:00.656Z,14.49
2022-10-23T12:40:30.220Z,14.54
2022-10-23T12:43:00.846Z,14.51
2022-10-23T12:45:34.273Z,14.55
2022-10-23T12:48:02.057Z,14.59
2022-10-23T12:50:32.161Z,14.64
2022-10-23T12:53:07.690Z,14.60
2022-10-23T12:55:54.826Z,14.60
2022-10-23T12:58:26.249Z,14.53
2022-10-23T13:01:00.313Z,14.51
2022-10-23T13:03:30.600Z,14.50
2022-10-23T13:06:00.383Z,14.54
2022-10-23T13:08:41.122Z,14.56
2022-10-23T13:11:30.767Z,14.60
2022-10-23T13:14:01.712Z,14.65
2022-10-23T13:16:29.591Z,14.70
2022-10-23T13:18:57.337Z,14.72
2022-10-23T13:21:28.648Z,14.70
2022-10-23T13:23:56.786Z,14.74
2022-10-23T13:26:28.480Z,14.71
2022-10-23T13:28:57.557Z,14.71
2022-10-23T13:31:32.243Z,14.75
2022-10-23T13:34:00.150Z,14.70
2022-10-23T13:36:29.937Z,14.75
2022-10-23T13:39:00.104Z,14.77
2022-10-23T13:41:34.150Z,14.82
2022-10-23T13:44:01.941Z,14.86
2022-10-23T13:46:30.005Z,14.85
2022-10-23T13:48:58.033Z,14.82
2022-10-23T13:51:28.852Z,14.80
2022-10-23T13:53:57.630Z,14.75
2022-10-23T13:56:27.471Z,14.67
2022-10-23T13:58:55.273Z,14.62
2022-10-23T14:01:26.305Z,14.59
2022-10-23T14:03:55.866Z,14.58
2022-10-23T14:06:23.989Z,14.58
2022-10-23T14:08:52.338Z,14.61
2022-10-23T14:11:20.765Z,14.64
2022-10-23T14:13:49.553Z,14.66
2022-10-23T14:16:19.655Z,14.66
2022-10-23T14:18:48.134Z,14.63
2022-10-23T14:21:19.839Z,14.61
2022-10-23T14:23:48.657Z,14.60
2022-10-23T14:26:21.836Z,14.57
2022-10-23T14:28:53.389Z,14.56
2022-10-23T14:31:22.284Z,14.55
2022-10-23T14:33:56.229Z,14.54
2022-10-23T14:36:28.254Z,14.53
2022-10-23T14:39:02.253Z,14.55
2022-10-23T14:41:29.962Z,14.57
2022-10-23T14:43:57.757Z,14.52
2022-10-23T14:46:25.639Z,14.52
2022-10-23T14:48:57.521Z,14.51
2022-10-23T14:51:32.572Z,14.49
2022-10-23T14:54:06.246Z,14.46
2022-10-23T14:56:37.791Z,14.41
2022-10-23T14:59:05.685Z,14.34
2022-10-23T15:01:43.685Z,14.30
2022-10-23T15:04:15.198Z,14.26
2022-10-23T15:06:44.298Z,14.26
2022-10-23T15:09:12.196Z,14.22
2022-10-23T15:11:40.003Z,14.17
2022-10-23T15:14:08.266Z,14.18
2022-10-23T15:16:41.329Z,14.12
2022-10-23T15:19:18.091Z,14.10
2022-10-23T15:21:48.104Z,14.04
2022-10-23T15:24:17.320Z,13.97
2022-10-23T15:26:45.282Z,13.93
2022-10-23T15:29:14.791Z,13.93
2022-10-23T15:31:49.183Z,13.90
2022-10-23T15:34:20.837Z,13.85
2022-10-23T15:36:50.071Z,13.79
2022-10-23T15:39:26.024Z,13.76
2022-10-23T15:41:55.949Z,13.69
2022-10-23T15:44:26.709Z,13.66
2022-10-23T15:46:57.068Z,13.60
2022-10-23T15:49:26.548Z,13.56
2022-10-23T15:51:54.441Z,13.49
2022-10-23T15:54:22.874Z,13.43
2022-10-23T15:56:53.134Z,13.38
2022-10-23T15:59:23.691Z,13.33
2022-10-23T16:01:52.105Z,13.27
2022-10-23T16:04:20.123Z,13.21
2022-10-23T16:06:48.614Z,13.19
2022-10-23T16:09:16.517Z,13.19
2022-10-23T16:11:44.535Z,13.18
2022-10-23T16:14:14.570Z,13.14
2022-10-23T16:16:42.829Z,13.09
2022-10-23T16:19:11.536Z,13.06
2022-10-23T16:21:39.433Z,13.03
2022-10-23T16:24:08.226Z,13.01
2022-10-23T16:26:36.841Z,12.99
2022-10-23T16:29:07.430Z,12.94
2022-10-23T16:31:35.653Z,12.91
2022-10-23T16:34:05.272Z,12.90
2022-10-23T16:36:34.482Z,12.88
2022-10-23T16:39:14.348Z,12.84
2022-10-23T16:42:20.469Z,12.78
2022-10-23T16:45:02.351Z,12.76
2022-10-23T16:47:33.799Z,12.74
2022-10-23T16:50:01.601Z,12.72
2022-10-23T16:52:29.960Z,12.68
2022-10-23T16:54:57.827Z,12.67
2022-10-23T16:57:27.885Z,12.64
2022-10-23T16:59:55.680Z,12.63
2022-10-23T17:02:23.604Z,12.60
2022-10-23T17:04:51.654Z,12.56
2022-10-23T17:07:19.601Z,12.51
2022-10-23T17:09:47.486Z,12.47
2022-10-23T17:12:16.753Z,12.42
2022-10-23T17:14:44.643Z,12.38
2022-10-23T17:17:12.432Z,12.33
2022-10-23T17:19:45.981Z,12.27
2022-10-23T17:22:16.426Z,12.25
2022-10-23T17:24:46.434Z,12.21
2022-10-23T17:27:16.956Z,12.15
2022-10-23T17:29:44.802Z,12.12
2022-10-23T17:32:12.758Z,12.07
2022-10-23T17:34:40.575Z,12.06
2022-10-23T17:37:10.131Z,11.98
2022-10-23T17:39:37.954Z,11.93
2022-10-23T17:42:16.334Z,11.87
2022-10-23T17:44:50.690Z,11.85
2022-10-23T17:47:18.507Z,11.83
2022-10-23T17:49:46.347Z,11.77
2022-10-23T17:52:15.027Z,11.79
2022-10-23T17:54:42.874Z,11.78
2022-10-23T17:57:10.791Z,11.71
2022-10-23T17:59:39.159Z,11.66
2022-10-23T18:02:07.197Z,11.63
2022-10-23T18:04:35.103Z,11.64
2022-10-23T18:07:02.758Z,11.60
2022-10-23T18:09:30.631Z,11.56
2022-10-23T18:11:58.446Z,11.55
2022-10-23T18:14:29.424Z,11.53
2022-10-23T18:16:57.722Z,11.54
2022-10-23T18:19:25.463Z,11.56
2022-10-23T18:21:53.330Z,11.55
2022-10-23T18:24:21.285Z,11.54
2022-10-23T18:26:49.261Z,11.55
2022-10-23T18:29:17.666Z,11.51
2022-10-23T18:31:48.099Z,11.49
2022-10-23T18:34:16.076Z,11.47
2022-10-23T18:36:44.102Z,11.47
2022-10-23T18:39:14.999Z,11.48
2022-10-23T18:41:44.954Z,11.50
2022-10-23T18:44:17.351Z,11.53
2022-10-23T18:46:46.407Z,11.52
2022-10-23T18:49:14.890Z,11.43
2022-10-23T18:51:42.997Z,11.36
2022-10-23T18:54:14.116Z,11.34
2022-10-23T18:56:42.998Z,11.31
2022-10-23T18:59:17.274Z,11.29
2022-10-23T19:01:45.122Z,11.29
2022-10-23T19:04:15.798Z,11.29
2022-10-23T19:06:44.136Z,11.24
2022-10-23T19:09:13.995Z,11.18
2022-10-23T19:11:42.833Z,11.16
2022-10-23T19:14:11.305Z,11.13
2022-10-23T19:17:08.649Z,11.10
2022-10-23T19:19:48.632Z,11.08
2022-10-23T19:22:16.994Z,11.06
2022-10-23T19:24:57.947Z,11.05
2022-10-23T19:27:27.001Z,11.06
2022-10-23T19:29:55.931Z,11.06
2022-10-23T19:32:23.839Z,11.08
2022-10-23T19:34:51.747Z,11.07
2022-10-23T19:37:20.130Z,11.08
2022-10-23T19:39:47.856Z,11.09
2022-10-23T19:42:15.748Z,11.10
2022-10-23T19:44:43.594Z,11.12
2022-10-23T19:47:11.483Z,11.14
2022-10-23T19:49:39.437Z,11.14
2022-10-23T19:52:07.378Z,11.14
2022-10-23T19:54:35.295Z,11.18
2022-10-23T19:57:03.334Z,11.16
2022-10-23T19:59:31.066Z,11.17
2022-10-23T20:01:59.226Z,11.17
2022-10-23T20:04:28.833Z,11.17
2022-10-23T20:06:56.686Z,11.19
2022-10-23T20:09:24.469Z,11.22
2022-10-23T20:11:52.336Z,11.21
2022-10-23T20:14:20.120Z,11.20
2022-10-23T20:16:50.169Z,11.20
2022-10-23T20:19:21.264Z,11.16
2022-10-23T20:21:49.290Z,11.19
2022-10-23T20:24:19.327Z,11.18
2022-10-23T20:26:51.042Z,11.16
2022-10-23T20:29:19.021Z,11.15
2022-10-23T20:31:47.921Z,11.14
2022-10-23T20:34:16.032Z,11.11
2022-10-23T20:36:46.944Z,11.12
2022-10-23T20:39:18.990Z,11.13
2022-10-23T20:41:47.624Z,11.09
2022-10-23T20:46:49.873Z,11.14
2022-10-23T20:49:18.134Z,11.15
2022-10-23T20:51:54.113Z,11.15
2022-10-23T20:54:25.429Z,11.17
2022-10-23T20:56:53.198Z,11.18
2022-10-23T20:59:21.085Z,11.19
2022-10-23T21:01:51.306Z,11.19
2022-10-23T21:04:22.508Z,11.20
2022-10-23T21:07:10.713Z,11.22
2022-10-23T21:09:40.063Z,11.22
2022-10-23T21:12:08.539Z,11.21
2022-10-23T21:14:36.565Z,11.24
2022-10-23T21:17:05.179Z,11.26
2022-10-23T21:19:33.251Z,11.25
2022-10-23T21:22:01.211Z,11.23
2022-10-23T21:24:29.028Z,11.24
2022-10-23T21:26:56.934Z,11.24
2022-10-23T21:29:24.814Z,11.26
2022-10-23T21:31:59.195Z,11.28
2022-10-23T21:34:27.972Z,11.29
2022-10-23T21:37:13.800Z,11.30
2022-10-23T21:39:43.677Z,11.31
2022-10-23T21:42:14.904Z,11.33
2022-10-23T21:44:42.978Z,11.34
2022-10-23T21:47:10.908Z,11.32
2022-10-23T21:49:38.667Z,11.32
2022-10-23T21:52:06.591Z,11.32
2022-10-23T21:54:34.406Z,11.32
2022-10-23T21:57:04.137Z,11.31
2022-10-23T21:59:35.490Z,11.34
2022-10-23T22:02:04.357Z,11.36
2022-10-23T22:04:32.240Z,11.38
2022-10-23T22:07:00.339Z,11.43
2022-10-23T22:09:28.976Z,11.44
2022-10-23T22:11:57.333Z,11.46
2022-10-23T22:14:27.314Z,11.52
2022-10-23T22:16:55.945Z,11.51
2022-10-23T22:19:23.782Z,11.51
2022-10-23T22:21:51.704Z,11.50
2022-10-23T22:24:20.125Z,11.50
2022-10-23T22:26:51.465Z,11.51
2022-10-23T22:29:22.427Z,11.53
2022-10-23T22:31:51.898Z,11.56
2022-10-23T22:34:48.424Z,11.56
2022-10-23T22:37:14.828Z,11.59
2022-10-23T22:39:42.787Z,11.61
2022-10-23T22:42:11.057Z,11.62
2022-10-23T22:44:38.774Z,11.64
2022-10-23T22:47:06.882Z,11.65
2022-10-23T22:49:36.039Z,11.65
2022-10-23T22:52:04.758Z,11.65
2022-10-23T22:54:32.646Z,11.66
2022-10-23T22:57:00.810Z,11.67
2022-10-23T22:59:28.611Z,11.64
2022-10-23T23:01:56.365Z,11.63
2022-10-23T23:04:39.854Z,11.64
2022-10-23T23:07:11.983Z,11.62
2022-10-23T23:09:42.536Z,11.58
2022-10-23T23:12:13.572Z,11.57
2022-10-23T23:14:42.435Z,11.57
2022-10-23T23:17:10.770Z,11.54
2022-10-23T23:19:38.603Z,11.55
2022-10-23T23:22:06.530Z,11.57
2022-10-23T23:24:34.441Z,11.58
2022-10-23T23:27:02.410Z,11.60
2022-10-23T23:29:30.163Z,11.63
2022-10-23T23:31:58.114Z,11.66
2022-10-23T23:34:26.463Z,11.66
2022-10-23T23:36:54.264Z,11.67
2022-10-23T23:39:22.024Z,11.70
2022-10-23T23:41:49.866Z,11.71
2022-10-23T23:44:17.586Z,11.72
2022-10-23T23:46:45.315Z,11.72
2022-10-23T23:49:13.105Z,11.73
2022-10-23T23:51:41.094Z,11.74
2022-10-23T23:54:08.838Z,11.74
2022-10-23T23:56:36.673Z,11.77
2022-10-23T23:59:04.686Z,11.79
